sensor_id;sensor_type;location;lat;lon;timestamp;pressure;altitude;pressure_sealevel;temperature;humidity
47636;BME280;33364;50.766;15.338;2022-08-21T00:00:11;94736.13;;;16.50;88.47
47636;BME280;33364;50.766;15.338;2022-08-21T00:03:00;94742.47;;;16.31;86.49
47636;BME280;33364;50.766;15.338;2022-08-21T00:05:28;94738.25;;;16.22;88.40
47636;BME280;33364;50.766;15.338;2022-08-21T00:07:54;94730.09;;;16.25;88.67
47636;BME280;33364;50.766;15.338;2022-08-21T00:10:20;94722.75;;;16.28;89.27
47636;BME280;33364;50.766;15.338;2022-08-21T00:12:47;94728.97;;;16.27;88.73
47636;BME280;33364;50.766;15.338;2022-08-21T00:15:19;94725.50;;;16.11;88.34
47636;BME280;33364;50.766;15.338;2022-08-21T00:17:45;94721.44;;;16.08;88.44
47636;BME280;33364;50.766;15.338;2022-08-21T00:20:13;94715.38;;;16.16;88.84
47636;BME280;33364;50.766;15.338;2022-08-21T00:22:40;94725.84;;;16.24;87.33
47636;BME280;33364;50.766;15.338;2022-08-21T00:25:06;94715.91;;;16.27;86.46
47636;BME280;33364;50.766;15.338;2022-08-21T00:27:33;94716.53;;;16.29;87.58
47636;BME280;33364;50.766;15.338;2022-08-21T00:29:58;94713.09;;;16.21;85.14
47636;BME280;33364;50.766;15.338;2022-08-21T00:32:26;94706.75;;;16.23;86.11
47636;BME280;33364;50.766;15.338;2022-08-21T00:34:53;94710.00;;;16.25;87.42
47636;BME280;33364;50.766;15.338;2022-08-21T00:37:19;94705.59;;;16.26;86.82
47636;BME280;33364;50.766;15.338;2022-08-21T00:39:46;94713.44;;;16.26;85.18
47636;BME280;33364;50.766;15.338;2022-08-21T00:42:13;94707.75;;;16.22;85.84
47636;BME280;33364;50.766;15.338;2022-08-21T00:44:43;94710.00;;;16.25;86.26
47636;BME280;33364;50.766;15.338;2022-08-21T00:47:10;94711.16;;;16.23;86.66
47636;BME280;33364;50.766;15.338;2022-08-21T00:49:36;94707.09;;;16.12;86.01
47636;BME280;33364;50.766;15.338;2022-08-21T00:52:03;94705.44;;;16.03;87.57
47636;BME280;33364;50.766;15.338;2022-08-21T00:54:31;94705.28;;;16.04;86.95
47636;BME280;33364;50.766;15.338;2022-08-21T00:57:07;94707.38;;;16.01;86.56
47636;BME280;33364;50.766;15.338;2022-08-21T00:59:36;94710.00;;;16.09;85.88
47636;BME280;33364;50.766;15.338;2022-08-21T01:02:06;94711.31;;;16.05;87.20
47636;BME280;33364;50.766;15.338;2022-08-21T01:04:32;94708.56;;;16.07;87.08
47636;BME280;33364;50.766;15.338;2022-08-21T01:06:58;94715.06;;;16.11;87.78
47636;BME280;33364;50.766;15.338;2022-08-21T01:09:24;94705.13;;;16.14;87.90
47636;BME280;33364;50.766;15.338;2022-08-21T01:11:50;94703.34;;;16.07;86.24
47636;BME280;33364;50.766;15.338;2022-08-21T01:14:15;94704.78;;;16.09;88.35
47636;BME280;33364;50.766;15.338;2022-08-21T01:16:44;94704.47;;;16.12;87.36
47636;BME280;33364;50.766;15.338;2022-08-21T01:19:12;94699.41;;;16.19;87.34
47636;BME280;33364;50.766;15.338;2022-08-21T01:21:37;94699.56;;;16.09;86.17
47636;BME280;33364;50.766;15.338;2022-08-21T01:24:03;94691.56;;;16.11;86.89
47636;BME280;33364;50.766;15.338;2022-08-21T01:26:31;94701.22;;;16.18;88.58
47636;BME280;33364;50.766;15.338;2022-08-21T01:31:32;94683.91;;;16.17;87.37
47636;BME280;33364;50.766;15.338;2022-08-21T01:33:59;94687.66;;;16.15;86.92
47636;BME280;33364;50.766;15.338;2022-08-21T01:36:25;94679.84;;;16.07;87.19
47636;BME280;33364;50.766;15.338;2022-08-21T01:38:51;94678.50;;;16.11;86.88
47636;BME280;33364;50.766;15.338;2022-08-21T01:41:17;94664.66;;;16.18;85.69
47636;BME280;33364;50.766;15.338;2022-08-21T01:43:44;94669.38;;;16.15;84.79
47636;BME280;33364;50.766;15.338;2022-08-21T01:46:10;94665.31;;;16.12;85.36
47636;BME280;33364;50.766;15.338;2022-08-21T01:48:36;94674.09;;;16.11;85.92
47636;BME280;33364;50.766;15.338;2022-08-21T01:51:04;94670.84;;;16.01;86.66
47636;BME280;33364;50.766;15.338;2022-08-21T01:53:31;94666.09;;;15.96;87.31
47636;BME280;33364;50.766;15.338;2022-08-21T01:55:59;94665.63;;;16.01;86.79
47636;BME280;33364;50.766;15.338;2022-08-21T01:58:25;94670.19;;;15.99;87.56
47636;BME280;33364;50.766;15.338;2022-08-21T02:00:51;94657.63;;;15.86;87.23
47636;BME280;33364;50.766;15.338;2022-08-21T02:03:16;94665.47;;;15.94;87.62
47636;BME280;33364;50.766;15.338;2022-08-21T02:05:42;94652.91;;;15.90;87.14
47636;BME280;33364;50.766;15.338;2022-08-21T02:08:07;94661.53;;;15.90;87.94
47636;BME280;33364;50.766;15.338;2022-08-21T02:10:33;94652.09;;;15.97;87.36
47636;BME280;33364;50.766;15.338;2022-08-21T02:12:59;94664.34;;;15.97;87.80
47636;BME280;33364;50.766;15.338;2022-08-21T02:15:27;94659.59;;;15.92;88.30
47636;BME280;33364;50.766;15.338;2022-08-21T02:17:56;94647.69;;;15.90;88.32
47636;BME280;33364;50.766;15.338;2022-08-21T02:20:28;94653.88;;;15.89;88.75
47636;BME280;33364;50.766;15.338;2022-08-21T02:22:54;94644.09;;;15.83;88.02
47636;BME280;33364;50.766;15.338;2022-08-21T02:25:22;94650.78;;;15.77;89.47
47636;BME280;33364;50.766;15.338;2022-08-21T02:27:48;94644.59;;;15.78;89.11
47636;BME280;33364;50.766;15.338;2022-08-21T02:30:19;94644.59;;;15.78;89.91
47636;BME280;33364;50.766;15.338;2022-08-21T02:32:45;94641.31;;;15.84;89.02
47636;BME280;33364;50.766;15.338;2022-08-21T02:35:12;94647.69;;;15.90;89.63
47636;BME280;33364;50.766;15.338;2022-08-21T02:37:46;94647.38;;;15.93;89.20
47636;BME280;33364;50.766;15.338;2022-08-21T02:40:13;94649.50;;;15.97;89.32
47636;BME280;33364;50.766;15.338;2022-08-21T02:42:39;94646.41;;;16.02;88.79
47636;BME280;33364;50.766;15.338;2022-08-21T02:45:06;94640.38;;;16.01;88.46
47636;BME280;33364;50.766;15.338;2022-08-21T02:47:32;94642.97;;;16.01;88.66
47636;BME280;33364;50.766;15.338;2022-08-21T02:49:57;94645.09;;;15.98;88.97
47636;BME280;33364;50.766;15.338;2022-08-21T02:52:23;94639.06;;;15.97;87.70
47636;BME280;33364;50.766;15.338;2022-08-21T02:54:49;94645.59;;;16.01;89.34
47636;BME280;33364;50.766;15.338;2022-08-21T02:57:15;94648.50;;;15.98;89.63
47636;BME280;33364;50.766;15.338;2022-08-21T02:59:41;94646.72;;;15.99;89.84
47636;BME280;33364;50.766;15.338;2022-08-21T03:02:07;94642.63;;;15.96;89.09
47636;BME280;33364;50.766;15.338;2022-08-21T03:04:33;94649.81;;;15.94;88.65
47636;BME280;33364;50.766;15.338;2022-08-21T03:06:58;94645.41;;;15.95;88.48
47636;BME280;33364;50.766;15.338;2022-08-21T03:09:24;94640.19;;;15.95;89.79
47636;BME280;33364;50.766;15.338;2022-08-21T03:11:50;94639.22;;;15.88;88.87
47636;BME280;33364;50.766;15.338;2022-08-21T03:14:17;94641.97;;;15.86;89.49
47636;BME280;33364;50.766;15.338;2022-08-21T03:16:43;94630.41;;;15.89;89.47
47636;BME280;33364;50.766;15.338;2022-08-21T03:19:09;94626.63;;;15.91;89.58
47636;BME280;33364;50.766;15.338;2022-08-21T03:21:35;94622.41;;;15.90;89.53
47636;BME280;33364;50.766;15.338;2022-08-21T03:24:01;94622.88;;;15.86;88.95
47636;BME280;33364;50.766;15.338;2022-08-21T03:26:27;94634.13;;;15.86;89.44
47636;BME280;33364;50.766;15.338;2022-08-21T03:28:52;94618.16;;;15.89;90.27
47636;BME280;33364;50.766;15.338;2022-08-21T03:31:18;94631.06;;;15.99;90.17
47636;BME280;33364;50.766;15.338;2022-08-21T03:33:44;94651.44;;;15.95;89.31
47636;BME280;33364;50.766;15.338;2022-08-21T03:36:11;94640.84;;;15.97;89.54
47636;BME280;33364;50.766;15.338;2022-08-21T03:38:37;94648.03;;;16.03;89.47
47636;BME280;33364;50.766;15.338;2022-08-21T03:41:04;94644.91;;;16.08;89.96
47636;BME280;33364;50.766;15.338;2022-08-21T03:43:31;94642.63;;;16.13;89.67
47636;BME280;33364;50.766;15.338;2022-08-21T03:45:57;94641.47;;;16.15;88.46
47636;BME280;33364;50.766;15.338;2022-08-21T03:48:23;94656.34;;;16.23;88.92
47636;BME280;33364;50.766;15.338;2022-08-21T03:50:51;94644.72;;;16.25;89.20
47636;BME280;33364;50.766;15.338;2022-08-21T03:53:17;94649.00;;;16.18;89.14
47636;BME280;33364;50.766;15.338;2022-08-21T03:55:45;94653.72;;;16.15;89.60
47636;BME280;33364;50.766;15.338;2022-08-21T03:58:11;94657.97;;;16.08;90.70
47636;BME280;33364;50.766;15.338;2022-08-21T04:00:37;94656.66;;;16.12;90.74
47636;BME280;33364;50.766;15.338;2022-08-21T04:03:03;94664.81;;;16.17;90.13
47636;BME280;33364;50.766;15.338;2022-08-21T04:05:29;94663.84;;;16.18;90.94
47636;BME280;33364;50.766;15.338;2022-08-21T04:07:59;94670.50;;;16.20;91.01
47636;BME280;33364;50.766;15.338;2022-08-21T04:10:27;94676.41;;;16.22;91.06
47636;BME280;33364;50.766;15.338;2022-08-21T04:12:53;94675.75;;;16.20;91.18
47636;BME280;33364;50.766;15.338;2022-08-21T04:15:20;94681.47;;;16.24;91.15
47636;BME280;33364;50.766;15.338;2022-08-21T04:17:46;94681.47;;;16.24;91.20
47636;BME280;33364;50.766;15.338;2022-08-21T04:20:12;94701.03;;;16.28;91.44
47636;BME280;33364;50.766;15.338;2022-08-21T04:22:38;94694.34;;;16.17;91.89
47636;BME280;33364;50.766;15.338;2022-08-21T04:25:04;94703.66;;;16.12;92.63
47636;BME280;33364;50.766;15.338;2022-08-21T04:27:30;94707.88;;;16.04;92.48
47636;BME280;33364;50.766;15.338;2022-08-21T04:29:55;94713.59;;;16.00;91.20
47636;BME280;33364;50.766;15.338;2022-08-21T04:32:25;94716.53;;;15.89;88.45
47636;BME280;33364;50.766;15.338;2022-08-21T04:34:59;94714.53;;;15.74;87.88
47636;BME280;33364;50.766;15.338;2022-08-21T04:37:25;94717.91;;;15.59;89.21
47636;BME280;33364;50.766;15.338;2022-08-21T04:39:50;94722.59;;;15.55;88.20
47636;BME280;33364;50.766;15.338;2022-08-21T04:42:16;94727.44;;;15.34;88.35
47636;BME280;33364;50.766;15.338;2022-08-21T04:44:42;94727.56;;;15.24;90.15
47636;BME280;33364;50.766;15.338;2022-08-21T04:47:08;94722.97;;;15.18;88.13
47636;BME280;33364;50.766;15.338;2022-08-21T04:49:34;94721.66;;;15.14;90.16
47636;BME280;33364;50.766;15.338;2022-08-21T04:52:00;94728.81;;;15.12;90.34
47636;BME280;33364;50.766;15.338;2022-08-21T04:54:26;94727.09;;;14.94;89.55
47636;BME280;33364;50.766;15.338;2022-08-21T04:56:56;94726.03;;;14.79;90.37
47636;BME280;33364;50.766;15.338;2022-08-21T04:59:32;94729.31;;;14.81;89.33
47636;BME280;33364;50.766;15.338;2022-08-21T05:01:59;94734.38;;;14.83;90.49
47636;BME280;33364;50.766;15.338;2022-08-21T05:04:29;94730.34;;;14.88;91.19
47636;BME280;33364;50.766;15.338;2022-08-21T05:06:57;94737.84;;;14.91;91.17
47636;BME280;33364;50.766;15.338;2022-08-21T05:09:24;94732.78;;;14.90;90.73
47636;BME280;33364;50.766;15.338;2022-08-21T05:11:50;94737.97;;;14.90;90.40
47636;BME280;33364;50.766;15.338;2022-08-21T05:14:17;94735.19;;;14.83;90.57
47636;BME280;33364;50.766;15.338;2022-08-21T05:16:43;94735.03;;;14.85;91.10
47636;BME280;33364;50.766;15.338;2022-08-21T05:19:10;94736.06;;;14.92;91.72
47636;BME280;33364;50.766;15.338;2022-08-21T05:21:38;94737.75;;;15.01;91.93
47636;BME280;33364;50.766;15.338;2022-08-21T05:24:04;94732.38;;;15.11;92.08
47636;BME280;33364;50.766;15.338;2022-08-21T05:26:30;94735.84;;;15.11;91.68
47636;BME280;33364;50.766;15.338;2022-08-21T05:28:56;94732.03;;;15.06;91.13
47636;BME280;33364;50.766;15.338;2022-08-21T05:31:22;94739.38;;;15.02;91.14
47636;BME280;33364;50.766;15.338;2022-08-21T05:33:48;94729.06;;;15.00;89.63
47636;BME280;33364;50.766;15.338;2022-08-21T05:36:13;94720.31;;;15.10;90.61
47636;BME280;33364;50.766;15.338;2022-08-21T05:38:39;94725.81;;;14.98;89.38
47636;BME280;33364;50.766;15.338;2022-08-21T05:41:04;94739.66;;;14.99;90.21
47636;BME280;33364;50.766;15.338;2022-08-21T05:43:30;94721.78;;;15.04;89.76
47636;BME280;33364;50.766;15.338;2022-08-21T05:45:58;94729.06;;;15.00;89.96
47636;BME280;33364;50.766;15.338;2022-08-21T05:48:24;94730.09;;;15.08;90.69
47636;BME280;33364;50.766;15.338;2022-08-21T05:50:51;94734.50;;;15.07;89.28
47636;BME280;33364;50.766;15.338;2022-08-21T05:53:18;94724.44;;;15.12;90.60
47636;BME280;33364;50.766;15.338;2022-08-21T05:55:45;94739.44;;;15.18;88.96
47636;BME280;33364;50.766;15.338;2022-08-21T05:58:11;94729.78;;;15.11;89.07
47636;BME280;33364;50.766;15.338;2022-08-21T06:00:37;94733.81;;;15.05;88.21
47636;BME280;33364;50.766;15.338;2022-08-21T06:03:02;94735.13;;;15.01;90.04
47636;BME280;33364;50.766;15.338;2022-08-21T06:05:28;94746.22;;;15.03;89.79
47636;BME280;33364;50.766;15.338;2022-08-21T06:07:54;94739.16;;;14.95;89.28
47636;BME280;33364;50.766;15.338;2022-08-21T06:10:20;94740.28;;;14.93;90.53
47636;BME280;33364;50.766;15.338;2022-08-21T06:12:45;94750.78;;;15.01;89.34
47636;BME280;33364;50.766;15.338;2022-08-21T06:15:11;94740.13;;;14.94;89.29
47636;BME280;33364;50.766;15.338;2022-08-21T06:17:36;94746.59;;;14.82;90.59
47636;BME280;33364;50.766;15.338;2022-08-21T06:20:03;94753.84;;;14.96;90.07
47636;BME280;33364;50.766;15.338;2022-08-21T06:22:29;94747.91;;;14.86;88.59
47636;BME280;33364;50.766;15.338;2022-08-21T06:24:55;94755.47;;;14.97;88.59
47636;BME280;33364;50.766;15.338;2022-08-21T06:27:21;94750.28;;;15.06;89.17
47636;BME280;33364;50.766;15.338;2022-08-21T06:29:46;94757.16;;;15.07;88.28
47636;BME280;33364;50.766;15.338;2022-08-21T06:32:13;94757.44;;;15.03;88.98
47636;BME280;33364;50.766;15.338;2022-08-21T06:34:40;94758.59;;;15.01;90.39
47636;BME280;33364;50.766;15.338;2022-08-21T06:37:08;94754.78;;;14.95;90.28
47636;BME280;33364;50.766;15.338;2022-08-21T06:39:34;94744.16;;;14.89;89.23
47636;BME280;33364;50.766;15.338;2022-08-21T06:42:00;94744.97;;;14.81;90.95
47636;BME280;33364;50.766;15.338;2022-08-21T06:44:26;94750.31;;;14.80;91.14
47636;BME280;33364;50.766;15.338;2022-08-21T06:46:52;94740.91;;;14.87;89.64
47636;BME280;33364;50.766;15.338;2022-08-21T06:49:17;94745.41;;;14.76;89.75
47636;BME280;33364;50.766;15.338;2022-08-21T06:51:43;94743.47;;;14.79;90.51
47636;BME280;33364;50.766;15.338;2022-08-21T06:54:09;94753.44;;;14.83;90.21
47636;BME280;33364;50.766;15.338;2022-08-21T06:56:35;94751.94;;;14.81;90.01
47636;BME280;33364;50.766;15.338;2022-08-21T06:59:04;94746.59;;;14.82;90.49
47636;BME280;33364;50.766;15.338;2022-08-21T07:01:30;94747.06;;;14.86;90.51
47636;BME280;33364;50.766;15.338;2022-08-21T07:03:56;94734.72;;;14.88;90.10
47636;BME280;33364;50.766;15.338;2022-08-21T07:06:22;94745.97;;;14.88;89.50
47636;BME280;33364;50.766;15.338;2022-08-21T07:08:47;94746.72;;;14.81;89.66
47636;BME280;33364;50.766;15.338;2022-08-21T07:11:19;94754.69;;;14.79;89.88
47636;BME280;33364;50.766;15.338;2022-08-21T07:13:45;94744.44;;;14.77;90.57
47636;BME280;33364;50.766;15.338;2022-08-21T07:16:11;94746.63;;;14.90;90.22
47636;BME280;33364;50.766;15.338;2022-08-21T07:18:36;94746.66;;;14.98;89.93
47636;BME280;33364;50.766;15.338;2022-08-21T07:21:04;94753.69;;;14.98;89.28
47636;BME280;33364;50.766;15.338;2022-08-21T07:23:33;94752.00;;;14.89;88.95
47636;BME280;33364;50.766;15.338;2022-08-21T07:25:59;94752.16;;;14.87;89.81
47636;BME280;33364;50.766;15.338;2022-08-21T07:28:26;94758.69;;;14.91;89.98
47636;BME280;33364;50.766;15.338;2022-08-21T07:30:55;94759.19;;;14.95;89.64
47636;BME280;33364;50.766;15.338;2022-08-21T07:33:21;94765.56;;;15.00;89.69
47636;BME280;33364;50.766;15.338;2022-08-21T07:35:47;94762.38;;;15.07;90.13
47636;BME280;33364;50.766;15.338;2022-08-21T07:38:13;94763.00;;;15.09;89.63
47636;BME280;33364;50.766;15.338;2022-08-21T07:40:38;94764.50;;;15.11;89.06
47636;BME280;33364;50.766;15.338;2022-08-21T07:43:04;94771.34;;;15.12;89.35
47636;BME280;33364;50.766;15.338;2022-08-21T07:45:30;94762.81;;;15.02;89.78
47636;BME280;33364;50.766;15.338;2022-08-21T07:47:56;94770.31;;;15.05;90.08
47636;BME280;33364;50.766;15.338;2022-08-21T07:50:21;94768.88;;;15.11;90.72
47636;BME280;33364;50.766;15.338;2022-08-21T07:52:47;94776.56;;;15.12;87.95
47636;BME280;33364;50.766;15.338;2022-08-21T07:55:15;94769.72;;;15.11;86.50
47636;BME280;33364;50.766;15.338;2022-08-21T07:57:41;94779.53;;;15.17;87.96
47636;BME280;33364;50.766;15.338;2022-08-21T08:00:11;94778.03;;;15.15;86.99
47636;BME280;33364;50.766;15.338;2022-08-21T08:02:37;94771.47;;;15.11;86.49
47636;BME280;33364;50.766;15.338;2022-08-21T08:05:04;94776.09;;;15.17;86.84
47636;BME280;33364;50.766;15.338;2022-08-21T08:07:30;94773.16;;;15.12;85.74
47636;BME280;33364;50.766;15.338;2022-08-21T08:09:56;94772.47;;;15.10;86.07
47636;BME280;33364;50.766;15.338;2022-08-21T08:12:21;94777.56;;;15.19;86.24
47636;BME280;33364;50.766;15.338;2022-08-21T08:14:47;94775.41;;;15.15;86.65
47636;BME280;33364;50.766;15.338;2022-08-21T08:17:13;94772.47;;;15.10;85.40
47636;BME280;33364;50.766;15.338;2022-08-21T08:19:39;94768.16;;;15.26;87.14
47636;BME280;33364;50.766;15.338;2022-08-21T08:22:17;94760.53;;;15.33;84.63
47636;BME280;33364;50.766;15.338;2022-08-21T08:25:03;94773.09;;;15.38;84.18
47636;BME280;33364;50.766;15.338;2022-08-21T08:27:30;94776.53;;;15.38;83.47
47636;BME280;33364;50.766;15.338;2022-08-21T08:29:56;94761.72;;;15.47;84.43
47636;BME280;33364;50.766;15.338;2022-08-21T08:32:22;94777.38;;;15.47;84.54
47636;BME280;33364;50.766;15.338;2022-08-21T08:34:48;94768.41;;;15.41;82.74
47636;BME280;33364;50.766;15.338;2022-08-21T08:37:14;94777.09;;;15.58;83.49
47636;BME280;33364;50.766;15.338;2022-08-21T08:39:40;94781.78;;;15.54;82.44
47636;BME280;33364;50.766;15.338;2022-08-21T08:42:07;94780.50;;;15.59;83.27
47636;BME280;33364;50.766;15.338;2022-08-21T08:44:40;94788.72;;;15.64;83.09
47636;BME280;33364;50.766;15.338;2022-08-21T08:47:08;94784.34;;;15.72;83.34
47636;BME280;33364;50.766;15.338;2022-08-21T08:52:31;94776.56;;;15.97;81.34
47636;BME280;33364;50.766;15.338;2022-08-21T08:57:33;94779.06;;;16.23;81.43
47636;BME280;33364;50.766;15.338;2022-08-21T09:00:05;94776.63;;;16.38;80.20
47636;BME280;33364;50.766;15.338;2022-08-21T09:02:32;94772.03;;;16.56;80.41
47636;BME280;33364;50.766;15.338;2022-08-21T09:04:59;94778.75;;;16.58;78.84
47636;BME280;33364;50.766;15.338;2022-08-21T09:07:47;94778.59;;;16.52;78.67
47636;BME280;33364;50.766;15.338;2022-08-21T09:10:30;94782.19;;;16.67;78.65
47636;BME280;33364;50.766;15.338;2022-08-21T09:13:04;94791.19;;;16.73;76.81
47636;BME280;33364;50.766;15.338;2022-08-21T09:15:54;94797.03;;;16.67;76.77
47636;BME280;33364;50.766;15.338;2022-08-21T09:21:29;94801.28;;;16.68;77.14
47636;BME280;33364;50.766;15.338;2022-08-21T09:26:49;94803.09;;;16.67;77.26
47636;BME280;33364;50.766;15.338;2022-08-21T09:29:23;94805.88;;;16.82;77.63
47636;BME280;33364;50.766;15.338;2022-08-21T09:31:50;94809.28;;;16.91;75.78
47636;BME280;33364;50.766;15.338;2022-08-21T09:34:25;94805.81;;;17.06;77.34
47636;BME280;33364;50.766;15.338;2022-08-21T09:36:51;94807.13;;;17.11;74.19
47636;BME280;33364;50.766;15.338;2022-08-21T09:41:56;94809.09;;;17.00;72.81
47636;BME280;33364;50.766;15.338;2022-08-21T09:44:28;94804.06;;;17.07;73.86
47636;BME280;33364;50.766;15.338;2022-08-21T09:46:54;94806.94;;;17.20;74.71
47636;BME280;33364;50.766;15.338;2022-08-21T09:49:31;94809.06;;;17.33;73.39
47636;BME280;33364;50.766;15.338;2022-08-21T09:51:58;94807.75;;;17.21;71.10
47636;BME280;33364;50.766;15.338;2022-08-21T09:54:34;94806.13;;;17.12;72.66
47636;BME280;33364;50.766;15.338;2022-08-21T09:57:14;94804.69;;;17.17;72.23
47636;BME280;33364;50.766;15.338;2022-08-21T10:02:41;94809.38;;;17.22;71.25
47636;BME280;33364;50.766;15.338;2022-08-21T10:05:16;94808.56;;;17.29;71.02
47636;BME280;33364;50.766;15.338;2022-08-21T10:07:42;94809.19;;;17.40;71.50
47636;BME280;33364;50.766;15.338;2022-08-21T10:12:48;94804.72;;;17.56;71.12
47636;BME280;33364;50.766;15.338;2022-08-21T10:15:35;94808.47;;;17.62;67.13
47636;BME280;33364;50.766;15.338;2022-08-21T10:26:23;94830.38;;;17.61;67.04
47636;BME280;33364;50.766;15.338;2022-08-21T10:34:45;94823.31;;;17.70;67.43
47636;BME280;33364;50.766;15.338;2022-08-21T10:43:20;94808.91;;;18.36;69.18
47636;BME280;33364;50.766;15.338;2022-08-21T10:45:57;94798.22;;;18.23;68.61
47636;BME280;33364;50.766;15.338;2022-08-21T10:48:50;94813.78;;;18.16;69.06
47636;BME280;33364;50.766;15.338;2022-08-21T10:51:20;94816.38;;;18.24;69.69
47636;BME280;33364;50.766;15.338;2022-08-21T10:54:09;94812.41;;;18.28;69.58
47636;BME280;33364;50.766;15.338;2022-08-21T10:56:40;94810.38;;;18.38;69.17
47636;BME280;33364;50.766;15.338;2022-08-21T11:01:50;94802.56;;;18.30;68.36
47636;BME280;33364;50.766;15.338;2022-08-21T11:04:25;94805.66;;;18.34;68.59
47636;BME280;33364;50.766;15.338;2022-08-21T11:07:00;94811.94;;;18.25;67.74
47636;BME280;33364;50.766;15.338;2022-08-21T11:09:28;94813.63;;;18.18;68.97
47636;BME280;33364;50.766;15.338;2022-08-21T11:14:55;94808.47;;;18.32;67.11
47636;BME280;33364;50.766;15.338;2022-08-21T11:17:36;94812.16;;;18.15;67.62
47636;BME280;33364;50.766;15.338;2022-08-21T11:20:12;94807.91;;;18.14;66.94
47636;BME280;33364;50.766;15.338;2022-08-21T11:22:56;94807.69;;;18.24;67.02
47636;BME280;33364;50.766;15.338;2022-08-21T11:25:35;94807.91;;;18.37;67.29
47636;BME280;33364;50.766;15.338;2022-08-21T11:28:10;94804.53;;;18.51;65.79
47636;BME280;33364;50.766;15.338;2022-08-21T11:33:46;94811.34;;;18.60;67.27
47636;BME280;33364;50.766;15.338;2022-08-21T11:36:31;94817.31;;;18.54;65.92
47636;BME280;33364;50.766;15.338;2022-08-21T11:39:13;94817.06;;;18.41;65.90
47636;BME280;33364;50.766;15.338;2022-08-21T11:41:49;94823.41;;;18.24;65.99
47636;BME280;33364;50.766;15.338;2022-08-21T11:50:05;94819.13;;;18.00;65.35
47636;BME280;33364;50.766;15.338;2022-08-21T11:53:19;94816.09;;;18.11;65.88
47636;BME280;33364;50.766;15.338;2022-08-21T11:55:43;94815.25;;;18.19;65.12
47636;BME280;33364;50.766;15.338;2022-08-21T11:58:16;94818.88;;;18.18;66.34
47636;BME280;33364;50.766;15.338;2022-08-21T12:00:57;94806.47;;;18.34;66.57
47636;BME280;33364;50.766;15.338;2022-08-21T12:03:31;94815.44;;;18.40;66.34
47636;BME280;33364;50.766;15.338;2022-08-21T12:06:01;94818.97;;;18.47;66.26
47636;BME280;33364;50.766;15.338;2022-08-21T12:08:56;94817.31;;;18.54;66.38
47636;BME280;33364;50.766;15.338;2022-08-21T12:16:35;94807.22;;;18.66;65.10
47636;BME280;33364;50.766;15.338;2022-08-21T12:19:14;94815.44;;;18.63;65.34
47636;BME280;33364;50.766;15.338;2022-08-21T12:22:11;94822.44;;;18.71;65.01
47636;BME280;33364;50.766;15.338;2022-08-21T12:24:48;94827.56;;;18.87;64.95
47636;BME280;33364;50.766;15.338;2022-08-21T12:29:51;94832.63;;;18.88;63.48
47636;BME280;33364;50.766;15.338;2022-08-21T12:34:54;94840.97;;;19.07;61.73
47636;BME280;33364;50.766;15.338;2022-08-21T12:37:22;94839.84;;;19.24;63.01
47636;BME280;33364;50.766;15.338;2022-08-21T12:39:52;94839.06;;;19.53;63.58
47636;BME280;33364;50.766;15.338;2022-08-21T12:47:27;94853.50;;;19.20;62.64
47636;BME280;33364;50.766;15.338;2022-08-21T12:50:03;94843.69;;;18.99;63.26
47636;BME280;33364;50.766;15.338;2022-08-21T12:53:20;94841.94;;;18.91;64.07
47636;BME280;33364;50.766;15.338;2022-08-21T12:55:27;94839.22;;;18.84;64.05
47636;BME280;33364;50.766;15.338;2022-08-21T12:57:53;94842.06;;;18.98;64.81
47636;BME280;33364;50.766;15.338;2022-08-21T13:00:23;94828.84;;;18.91;63.13
47636;BME280;33364;50.766;15.338;2022-08-21T13:02:50;94832.44;;;18.90;64.22
47636;BME280;33364;50.766;15.338;2022-08-21T13:05:36;94831.13;;;18.94;63.84
47636;BME280;33364;50.766;15.338;2022-08-21T13:08:04;94829.78;;;18.98;63.79
47636;BME280;33364;50.766;15.338;2022-08-21T13:10:32;94835.38;;;18.95;62.58
47636;BME280;33364;50.766;15.338;2022-08-21T13:13:02;94833.66;;;19.02;62.96
47636;BME280;33364;50.766;15.338;2022-08-21T13:15:34;94837.69;;;19.13;62.03
47636;BME280;33364;50.766;15.338;2022-08-21T13:18:03;94841.38;;;19.19;63.39
47636;BME280;33364;50.766;15.338;2022-08-21T13:20:39;94842.06;;;19.12;62.15
47636;BME280;33364;50.766;15.338;2022-08-21T13:25:44;94849.59;;;19.15;62.04
47636;BME280;33364;50.766;15.338;2022-08-21T13:28:12;94843.13;;;18.88;63.59
47636;BME280;33364;50.766;15.338;2022-08-21T13:30:46;94843.53;;;18.77;63.92
47636;BME280;33364;50.766;15.338;2022-08-21T13:33:15;94844.81;;;18.81;64.08
47636;BME280;33364;50.766;15.338;2022-08-21T13:38:19;94836.94;;;19.04;63.92
47636;BME280;33364;50.766;15.338;2022-08-21T13:40:51;94842.47;;;18.86;63.59
47636;BME280;33364;50.766;15.338;2022-08-21T13:43:20;94833.94;;;18.61;65.60
47636;BME280;33364;50.766;15.338;2022-08-21T13:45:50;94839.56;;;18.58;66.29
47636;BME280;33364;50.766;15.338;2022-08-21T13:48:16;94842.28;;;18.42;65.95
47636;BME280;33364;50.766;15.338;2022-08-21T13:50:43;94842.53;;;18.32;66.54
47636;BME280;33364;50.766;15.338;2022-08-21T13:56:23;94830.94;;;18.50;66.39
47636;BME280;33364;50.766;15.338;2022-08-21T13:58:52;94825.50;;;18.51;67.16
47636;BME280;33364;50.766;15.338;2022-08-21T14:01:22;94829.31;;;18.49;67.57
47636;BME280;33364;50.766;15.338;2022-08-21T14:03:50;94834.59;;;18.41;67.08
47636;BME280;33364;50.766;15.338;2022-08-21T14:06:22;94835.13;;;18.36;67.05
47636;BME280;33364;50.766;15.338;2022-08-21T14:08:56;94838.03;;;18.41;67.46
47636;BME280;33364;50.766;15.338;2022-08-21T14:11:24;94840.50;;;18.43;66.96
47636;BME280;33364;50.766;15.338;2022-08-21T14:13:58;94832.75;;;18.49;65.24
47636;BME280;33364;50.766;15.338;2022-08-21T14:16:28;94826.16;;;18.53;66.25
47636;BME280;33364;50.766;15.338;2022-08-21T14:21:41;94828.50;;;18.71;66.44